createdAt,value
2022-11-17T00:01:09.808Z,89.65
2022-11-17T00:03:40.278Z,89.32
2022-11-17T00:06:10.717Z,89.56
2022-11-17T00:08:41.170Z,89.54
2022-11-17T00:11:11.607Z,89.41
2022-11-17T00:14:00.178Z,89.29
2022-11-17T00:16:30.860Z,89.08
2022-11-17T00:19:19.188Z,89.10
2022-11-17T00:21:50.412Z,89.41
2022-11-17T00:24:23.168Z,89.55
2022-11-17T00:27:02.523Z,89.47
2022-11-17T00:29:37.339Z,89.32
2022-11-17T00:32:32.185Z,88.87
2022-11-17T00:35:02.651Z,88.47
2022-11-17T00:37:37.195Z,88.38
2022-11-17T00:40:09.502Z,88.36
2022-11-17T00:42:40.425Z,88.11
2022-11-17T00:45:12.979Z,88.14
2022-11-17T00:47:45.069Z,87.94
2022-11-17T00:50:16.178Z,88.05
2022-11-17T00:52:46.774Z,88.31
2022-11-17T00:55:17.531Z,88.39
2022-11-17T00:57:48.510Z,88.06
2022-11-17T01:00:21.296Z,88.00
2022-11-17T01:02:51.702Z,87.86
2022-11-17T01:05:22.086Z,87.79
2022-11-17T01:07:53.795Z,87.70
2022-11-17T01:10:24.225Z,87.72
2022-11-17T01:12:54.801Z,87.97
2022-11-17T01:15:25.302Z,88.10
2022-11-17T01:17:55.789Z,88.13
2022-11-17T01:20:26.164Z,87.70
2022-11-17T01:22:58.017Z,87.74
2022-11-17T01:25:28.804Z,87.62
2022-11-17T01:27:59.191Z,87.63
2022-11-17T01:30:29.665Z,88.05
2022-11-17T01:33:00.071Z,88.07
2022-11-17T01:35:31.096Z,88.10
2022-11-17T01:38:01.477Z,88.11
2022-11-17T01:40:32.370Z,88.11
2022-11-17T01:43:02.730Z,88.37
2022-11-17T01:45:33.539Z,88.32
2022-11-17T01:48:07.414Z,88.05
2022-11-17T01:50:40.344Z,88.07
2022-11-17T01:53:15.383Z,88.11
2022-11-17T01:55:51.500Z,88.01
2022-11-17T01:58:25.563Z,87.83
2022-11-17T02:00:56.975Z,88.06
2022-11-17T02:03:28.588Z,88.03
2022-11-17T02:06:06.410Z,88.18
2022-11-17T02:08:41.302Z,88.46
2022-11-17T02:11:17.161Z,88.24
2022-11-17T02:13:48.105Z,87.74
2022-11-17T02:16:19.327Z,87.50
2022-11-17T02:18:51.394Z,87.63
2022-11-17T02:22:00.412Z,87.64
2022-11-17T02:25:02.179Z,87.36
2022-11-17T02:28:00.184Z,87.27
2022-11-17T02:30:35.451Z,87.27
2022-11-17T02:33:14.039Z,87.08
2022-11-17T02:35:51.285Z,86.66
2022-11-17T02:38:29.331Z,86.58
2022-11-17T02:41:06.243Z,86.88
2022-11-17T02:44:00.547Z,86.52
2022-11-17T02:46:33.751Z,86.24
2022-11-17T02:49:11.181Z,86.37
2022-11-17T02:51:44.717Z,86.12
2022-11-17T02:54:15.752Z,86.19
2022-11-17T02:56:46.612Z,86.22
2022-11-17T02:59:19.245Z,86.26
2022-11-17T03:02:30.119Z,86.28
2022-11-17T03:05:11.991Z,86.68
2022-11-17T03:08:04.568Z,86.97
2022-11-17T03:10:49.095Z,87.25
2022-11-17T03:13:25.480Z,87.40
2022-11-17T03:16:00.714Z,87.53
2022-11-17T03:18:36.611Z,87.22
2022-11-17T03:21:21.361Z,87.11
2022-11-17T03:23:57.073Z,87.22
2022-11-17T03:26:31.693Z,87.25
2022-11-17T03:29:03.045Z,87.26
2022-11-17T03:31:34.755Z,87.19
2022-11-17T03:34:08.080Z,87.19
2022-11-17T03:36:42.990Z,87.36
2022-11-17T03:39:18.134Z,87.21
2022-11-17T03:41:50.652Z,87.26
2022-11-17T03:44:24.548Z,87.40
2022-11-17T03:46:58.517Z,87.34
2022-11-17T03:49:36.750Z,87.10
2022-11-17T03:52:07.863Z,87.13
2022-11-17T03:54:40.173Z,87.28
2022-11-17T03:57:18.199Z,87.30
2022-11-17T03:59:51.285Z,87.46
2022-11-17T04:02:23.418Z,87.22
2022-11-17T04:05:09.078Z,87.23
2022-11-17T04:07:41.726Z,87.42
2022-11-17T04:10:15.197Z,87.55
2022-11-17T04:13:03.420Z,87.48
2022-11-17T04:15:51.888Z,87.53
2022-11-17T04:18:23.224Z,87.26
2022-11-17T04:20:55.136Z,87.25
2022-11-17T04:23:26.702Z,87.48
2022-11-17T04:26:26.915Z,87.40
2022-11-17T04:28:57.490Z,87.54
2022-11-17T04:31:29.557Z,87.51
2022-11-17T04:34:01.424Z,87.29
2022-11-17T04:36:33.236Z,87.28
2022-11-17T04:39:03.784Z,87.30
2022-11-17T04:41:53.322Z,87.13
2022-11-17T04:44:26.188Z,87.08
2022-11-17T04:46:57.534Z,87.17
2022-11-17T04:49:29.287Z,87.40
2022-11-17T04:51:59.726Z,87.20
2022-11-17T04:54:30.076Z,87.05
2022-11-17T04:57:00.368Z,87.37
2022-11-17T04:59:30.711Z,87.29
2022-11-17T05:02:05.625Z,87.13
2022-11-17T05:04:54.819Z,87.09
2022-11-17T05:07:25.434Z,86.78
2022-11-17T05:09:55.998Z,86.86
2022-11-17T05:12:44.161Z,86.48
2022-11-17T05:15:35.004Z,86.40
2022-11-17T05:18:05.674Z,86.58
2022-11-17T05:20:36.433Z,86.86
2022-11-17T05:23:24.358Z,86.57
2022-11-17T05:25:57.174Z,86.29
2022-11-17T05:28:27.546Z,86.20
2022-11-17T05:30:59.076Z,86.22
2022-11-17T05:33:32.401Z,86.37
2022-11-17T05:36:08.604Z,86.59
2022-11-17T05:38:38.995Z,86.47
2022-11-17T05:41:10.012Z,86.39
2022-11-17T05:43:40.928Z,86.60
2022-11-17T05:46:11.955Z,86.47
2022-11-17T05:48:42.638Z,86.41
2022-11-17T05:51:13.617Z,86.20
2022-11-17T05:53:44.779Z,86.15
2022-11-17T05:56:29.364Z,86.23
2022-11-17T05:59:04.204Z,86.09
2022-11-17T06:01:37.604Z,86.13
2022-11-17T06:04:08.942Z,86.18
2022-11-17T06:06:39.982Z,85.99
2022-11-17T06:09:10.883Z,85.81
2022-11-17T06:11:41.601Z,86.15
2022-11-17T06:14:12.347Z,86.38
2022-11-17T06:16:47.202Z,86.44
2022-11-17T06:19:22.539Z,86.30
2022-11-17T06:22:13.388Z,86.21
2022-11-17T06:24:45.808Z,86.08
2022-11-17T06:27:17.966Z,85.88
2022-11-17T06:29:49.804Z,85.87
2022-11-17T06:32:21.581Z,85.78
2022-11-17T06:34:55.995Z,85.52
2022-11-17T06:37:28.252Z,85.77
2022-11-17T06:39:59.070Z,85.88
2022-11-17T06:42:47.654Z,85.88
2022-11-17T06:45:18.525Z,85.74
2022-11-17T06:47:49.432Z,86.10
2022-11-17T06:50:20.682Z,86.60
2022-11-17T06:52:51.726Z,86.72
2022-11-17T06:55:22.489Z,86.80
2022-11-17T06:57:53.766Z,87.33
2022-11-17T07:00:24.804Z,87.32
2022-11-17T07:02:59.591Z,87.34
2022-11-17T07:05:30.773Z,87.37
2022-11-17T07:08:02.428Z,87.30
2022-11-17T07:10:34.573Z,87.38
2022-11-17T07:13:05.701Z,87.45
2022-11-17T07:15:36.046Z,87.47
2022-11-17T07:18:06.760Z,87.36
2022-11-17T07:20:37.799Z,87.32
2022-11-17T07:23:08.882Z,87.31
2022-11-17T07:25:39.383Z,87.22
2022-11-17T07:28:10.210Z,87.48
2022-11-17T07:30:40.945Z,87.40
2022-11-17T07:33:11.558Z,87.57
2022-11-17T07:35:41.965Z,87.55
2022-11-17T07:38:13.148Z,87.58
2022-11-17T07:40:43.814Z,87.57
2022-11-17T07:43:14.916Z,87.83
2022-11-17T07:45:45.666Z,88.22
2022-11-17T07:48:16.285Z,88.37
2022-11-17T07:50:46.976Z,88.56
2022-11-17T07:53:17.627Z,88.56
2022-11-17T07:55:48.051Z,88.75
2022-11-17T07:58:18.432Z,88.84
2022-11-17T08:00:48.915Z,88.74
2022-11-17T08:03:19.674Z,89.24
2022-11-17T08:05:51.009Z,89.75
2022-11-17T08:08:22.134Z,89.94
2022-11-17T08:10:52.607Z,90.12
2022-11-17T08:13:24.215Z,90.17
2022-11-17T08:16:00.021Z,89.77
2022-11-17T08:18:31.859Z,89.74
2022-11-17T08:21:07.375Z,89.91
2022-11-17T08:23:38.638Z,89.89
2022-11-17T08:26:11.259Z,90.12
2022-11-17T08:28:41.992Z,90.19
2022-11-17T08:31:12.402Z,90.49
2022-11-17T08:33:43.315Z,90.61
2022-11-17T08:36:13.672Z,90.80
2022-11-17T08:38:44.519Z,91.18
2022-11-17T08:41:15.298Z,91.19
2022-11-17T08:43:45.622Z,91.33
2022-11-17T08:46:16.998Z,91.39
2022-11-17T08:48:48.983Z,91.28
2022-11-17T08:51:23.287Z,91.22
2022-11-17T08:53:53.749Z,91.09
2022-11-17T08:56:24.299Z,91.28
2022-11-17T08:58:54.740Z,91.18
2022-11-17T09:01:25.184Z,91.33
2022-11-17T09:03:55.681Z,91.54
2022-11-17T09:06:26.325Z,91.69
2022-11-17T09:08:57.833Z,91.81
2022-11-17T09:11:28.730Z,91.57
2022-11-17T09:13:59.471Z,91.53
2022-11-17T09:16:30.393Z,91.58
2022-11-17T09:19:02.649Z,91.73
2022-11-17T09:21:34.134Z,92.10
2022-11-17T09:24:04.947Z,92.21
2022-11-17T09:26:35.565Z,92.45
2022-11-17T09:29:06.340Z,92.34
2022-11-17T09:31:37.752Z,92.70
2022-11-17T09:34:08.635Z,92.75
2022-11-17T09:36:39.063Z,92.92
2022-11-17T09:39:10.398Z,93.05
2022-11-17T09:41:44.672Z,93.14
2022-11-17T09:44:23.445Z,93.22
2022-11-17T09:47:14.846Z,93.56
2022-11-17T09:49:58.672Z,93.21
2022-11-17T09:52:34.433Z,93.52
2022-11-17T09:55:15.328Z,93.78
2022-11-17T09:57:49.532Z,93.78
2022-11-17T10:00:29.116Z,93.59
2022-11-17T10:03:00.321Z,93.81
2022-11-17T10:05:32.784Z,93.74
2022-11-17T10:08:08.323Z,93.61
2022-11-17T10:10:44.327Z,93.56
2022-11-17T10:13:23.812Z,93.56
2022-11-17T10:15:58.542Z,93.74
2022-11-17T10:18:37.566Z,93.91
2022-11-17T10:21:10.309Z,93.84
2022-11-17T10:23:46.846Z,93.82
2022-11-17T10:26:18.487Z,93.91
2022-11-17T10:28:49.543Z,94.09
2022-11-17T10:31:21.099Z,94.28
2022-11-17T10:33:52.980Z,94.34
2022-11-17T10:36:26.069Z,94.18
2022-11-17T10:38:58.809Z,94.14
2022-11-17T10:41:37.323Z,94.41
2022-11-17T10:44:16.662Z,94.53
2022-11-17T10:47:02.454Z,94.71
2022-11-17T10:49:36.475Z,94.69
2022-11-17T10:52:18.763Z,94.78
2022-11-17T10:54:49.865Z,94.86
2022-11-17T10:57:24.251Z,94.97
2022-11-17T10:59:58.002Z,95.04
2022-11-17T11:02:35.101Z,94.94
2022-11-17T11:05:14.932Z,95.07
2022-11-17T11:07:45.982Z,95.37
2022-11-17T11:10:21.274Z,95.46
2022-11-17T11:12:56.783Z,95.42
2022-11-17T11:15:32.569Z,95.72
2022-11-17T11:18:03.092Z,95.28
2022-11-17T11:20:40.685Z,95.51
2022-11-17T11:23:21.639Z,95.44
2022-11-17T11:25:57.708Z,95.34
2022-11-17T11:28:45.606Z,95.82
2022-11-17T11:31:28.106Z,95.83
2022-11-17T11:34:08.596Z,95.94
2022-11-17T11:36:44.475Z,95.59
2022-11-17T11:39:30.883Z,95.52
2022-11-17T11:42:23.721Z,95.42
2022-11-17T11:45:08.221Z,95.43
2022-11-17T11:48:02.680Z,95.37
2022-11-17T11:50:41.580Z,95.26
2022-11-17T11:53:19.679Z,95.22
2022-11-17T11:55:56.668Z,95.42
2022-11-17T11:58:27.184Z,95.24
2022-11-17T12:01:05.425Z,95.46
2022-11-17T12:03:44.936Z,95.41
2022-11-17T12:06:44.064Z,95.18
2022-11-17T12:09:48.468Z,95.09
2022-11-17T12:12:21.647Z,95.08
2022-11-17T12:15:13.582Z,94.68
2022-11-17T12:18:00.040Z,94.77
2022-11-17T12:21:04.272Z,94.83
2022-11-17T12:23:49.516Z,94.74
2022-11-17T12:26:29.462Z,94.77
2022-11-17T12:29:30.672Z,94.70
2022-11-17T12:32:03.133Z,94.45
2022-11-17T12:34:37.149Z,94.18
2022-11-17T12:37:26.138Z,94.28
2022-11-17T12:40:05.068Z,94.43
2022-11-17T12:42:36.833Z,94.34
2022-11-17T12:45:12.498Z,94.64
2022-11-17T12:47:59.134Z,94.79
2022-11-17T12:50:49.511Z,94.42
2022-11-17T12:53:38.010Z,94.19
2022-11-17T12:56:41.077Z,94.25
2022-11-17T12:59:46.239Z,94.32
2022-11-17T13:02:53.247Z,94.36
2022-11-17T13:05:25.736Z,94.39
2022-11-17T13:08:20.307Z,94.34
2022-11-17T13:10:53.164Z,94.33
2022-11-17T13:13:26.308Z,94.23
2022-11-17T13:15:59.704Z,94.55
2022-11-17T13:18:34.404Z,94.03
2022-11-17T13:21:05.791Z,94.14
2022-11-17T13:23:43.754Z,94.41
2022-11-17T13:26:20.761Z,94.72
2022-11-17T13:29:03.006Z,94.75
2022-11-17T13:31:34.311Z,95.01
2022-11-17T13:34:14.157Z,94.96
2022-11-17T13:36:56.878Z,94.97
2022-11-17T13:39:28.216Z,95.02
2022-11-17T13:41:59.057Z,94.92
2022-11-17T13:44:30.185Z,94.92
2022-11-17T13:47:21.008Z,94.52
2022-11-17T13:49:52.045Z,94.44
2022-11-17T13:52:40.442Z,94.63
2022-11-17T13:55:19.825Z,94.46
2022-11-17T13:57:59.144Z,94.67
2022-11-17T14:00:30.302Z,94.52
2022-11-17T14:03:03.279Z,94.52
2022-11-17T14:05:35.099Z,94.63
2022-11-17T14:08:27.060Z,94.48
2022-11-17T14:11:14.667Z,94.52
2022-11-17T14:13:47.736Z,94.57
2022-11-17T14:16:26.505Z,94.73
2022-11-17T14:19:06.136Z,94.63
2022-11-17T14:21:36.616Z,94.51
2022-11-17T14:24:13.912Z,94.72
2022-11-17T14:26:45.554Z,94.81
2022-11-17T14:29:16.442Z,94.80
2022-11-17T14:31:47.299Z,94.51
2022-11-17T14:34:18.063Z,94.48
2022-11-17T14:36:51.080Z,94.71
2022-11-17T14:39:22.137Z,94.59
2022-11-17T14:41:53.721Z,94.81
2022-11-17T14:44:24.063Z,94.85
2022-11-17T14:46:54.424Z,94.87
2022-11-17T14:49:25.146Z,94.69
2022-11-17T14:51:59.225Z,94.88
2022-11-17T14:54:30.117Z,95.02
2022-11-17T14:57:00.497Z,95.40
2022-11-17T14:59:31.492Z,95.44
2022-11-17T15:02:02.455Z,95.26
2022-11-17T15:04:50.101Z,95.39
2022-11-17T15:07:21.918Z,95.07
2022-11-17T15:09:52.892Z,95.15
2022-11-17T15:12:23.441Z,95.01
2022-11-17T15:14:57.297Z,95.12
2022-11-17T15:17:28.759Z,95.34
2022-11-17T15:19:59.504Z,95.63
2022-11-17T15:22:29.889Z,95.72
2022-11-17T15:25:00.538Z,95.41
2022-11-17T15:27:31.203Z,95.22
2022-11-17T15:30:02.043Z,95.37
2022-11-17T15:32:33.143Z,95.54
2022-11-17T15:35:04.295Z,95.33
2022-11-17T15:37:35.062Z,95.39
2022-11-17T15:40:06.404Z,95.44
2022-11-17T15:42:37.300Z,95.35
2022-11-17T15:45:09.396Z,95.26
2022-11-17T15:47:40.271Z,95.28
2022-11-17T15:50:11.951Z,95.59
2022-11-17T15:53:02.912Z,95.35
2022-11-17T15:55:34.393Z,95.38
2022-11-17T15:58:05.201Z,95.55
2022-11-17T16:00:40.096Z,95.74
2022-11-17T16:03:10.962Z,95.48
2022-11-17T16:05:41.383Z,95.62
2022-11-17T16:08:12.123Z,95.60
2022-11-17T16:10:43.132Z,95.72
2022-11-17T16:13:13.907Z,95.68
2022-11-17T16:15:44.323Z,95.83
2022-11-17T16:18:14.716Z,95.67
2022-11-17T16:20:45.406Z,95.79
2022-11-17T16:23:16.458Z,95.88
2022-11-17T16:25:49.253Z,95.86
2022-11-17T16:28:20.418Z,95.93
2022-11-17T16:30:50.787Z,95.92
2022-11-17T16:33:21.203Z,95.66
2022-11-17T16:35:51.604Z,95.95
2022-11-17T16:38:22.053Z,96.02
2022-11-17T16:40:52.630Z,96.01
2022-11-17T16:43:23.092Z,95.80
2022-11-17T16:45:53.764Z,95.97
2022-11-17T16:48:25.426Z,95.86
2022-11-17T16:50:55.907Z,95.94
2022-11-17T16:53:26.689Z,95.90
2022-11-17T16:56:03.582Z,95.72
2022-11-17T16:58:34.192Z,96.15
2022-11-17T17:01:13.443Z,96.01
2022-11-17T17:03:44.667Z,96.04
2022-11-17T17:06:16.752Z,96.06
2022-11-17T17:08:47.198Z,96.17
2022-11-17T17:11:18.308Z,95.98
2022-11-17T17:13:48.722Z,96.04
2022-11-17T17:16:21.262Z,96.00
2022-11-17T17:18:59.070Z,96.01
2022-11-17T17:21:31.184Z,96.08
2022-11-17T17:24:01.895Z,95.81
2022-11-17T17:26:33.603Z,96.10
2022-11-17T17:29:05.714Z,96.14
2022-11-17T17:31:38.142Z,95.85
2022-11-17T17:34:09.954Z,95.95
2022-11-17T17:36:40.376Z,96.05
2022-11-17T17:39:11.217Z,96.11
2022-11-17T17:41:44.298Z,96.23
2022-11-17T17:44:18.677Z,96.17
2022-11-17T17:46:49.897Z,95.98
2022-11-17T17:49:20.352Z,96.16
2022-11-17T17:51:50.777Z,96.09
2022-11-17T17:54:24.039Z,96.05
2022-11-17T17:56:57.324Z,95.93
2022-11-17T17:59:27.672Z,96.03
2022-11-17T18:01:58.104Z,96.04
2022-11-17T18:04:29.601Z,96.06
2022-11-17T18:07:01.652Z,95.98
2022-11-17T18:09:32.628Z,95.71
2022-11-17T18:12:03.032Z,95.84
2022-11-17T18:14:33.609Z,95.80
2022-11-17T18:17:04.545Z,95.73
2022-11-17T18:19:35.024Z,95.82
2022-11-17T18:22:05.536Z,96.00
2022-11-17T18:24:36.207Z,95.99
2022-11-17T18:27:07.571Z,96.12
2022-11-17T18:29:37.931Z,96.02
2022-11-17T18:32:08.847Z,95.97
2022-11-17T18:34:41.863Z,96.00
2022-11-17T18:37:13.076Z,95.93
2022-11-17T18:39:43.961Z,96.11
2022-11-17T18:42:14.707Z,96.12
2022-11-17T18:44:45.088Z,96.19
2022-11-17T18:47:15.631Z,95.93
2022-11-17T18:49:46.566Z,95.84
2022-11-17T18:52:17.103Z,95.88
2022-11-17T18:54:47.618Z,95.91
2022-11-17T18:57:19.151Z,95.91
2022-11-17T18:59:49.755Z,96.01
2022-11-17T19:02:20.511Z,95.72
2022-11-17T19:04:51.208Z,95.62
2022-11-17T19:07:21.679Z,95.66
2022-11-17T19:09:52.086Z,95.69
2022-11-17T19:12:22.476Z,95.77
2022-11-17T19:14:54.612Z,95.78
2022-11-17T19:17:25.527Z,95.77
2022-11-17T19:19:56.565Z,95.46
2022-11-17T19:22:27.634Z,95.51
2022-11-17T19:24:58.075Z,95.61
2022-11-17T19:27:28.579Z,95.83
2022-11-17T19:29:59.594Z,95.78
2022-11-17T19:32:30.289Z,95.54
2022-11-17T19:35:11.784Z,95.64
2022-11-17T19:37:45.545Z,95.75
2022-11-17T19:40:17.154Z,95.82
2022-11-17T19:42:50.027Z,95.77
2022-11-17T19:45:20.999Z,95.87
2022-11-17T19:47:51.349Z,95.66
2022-11-17T19:50:22.167Z,95.77
2022-11-17T19:52:53.111Z,95.61
2022-11-17T19:55:24.127Z,95.36
2022-11-17T19:57:55.202Z,95.15
2022-11-17T20:00:25.627Z,95.24
2022-11-17T20:02:56.346Z,95.54
2022-11-17T20:05:27.398Z,95.48
2022-11-17T20:07:58.296Z,95.46
2022-11-17T20:10:28.716Z,95.31
2022-11-17T20:13:00.335Z,95.51
2022-11-17T20:15:35.005Z,95.42
2022-11-17T20:18:05.791Z,95.27
2022-11-17T20:20:37.450Z,94.87
2022-11-17T20:23:08.562Z,95.24
2022-11-17T20:25:41.371Z,95.05
2022-11-17T20:28:12.082Z,94.85
2022-11-17T20:30:43.251Z,94.85
2022-11-17T20:33:13.901Z,94.98
2022-11-17T20:35:44.986Z,94.74
2022-11-17T20:38:16.014Z,94.79
2022-11-17T20:40:46.609Z,94.75
2022-11-17T20:43:17.036Z,94.73
2022-11-17T20:45:51.060Z,94.91
2022-11-17T20:48:21.973Z,94.64
2022-11-17T20:51:00.003Z,94.65
2022-11-17T20:53:29.426Z,94.91
2022-11-17T20:56:00.612Z,95.01
2022-11-17T20:58:32.381Z,95.05
2022-11-17T21:01:09.825Z,94.85
2022-11-17T21:03:40.892Z,94.97
2022-11-17T21:06:12.065Z,94.97
2022-11-17T21:08:44.801Z,94.86
2022-11-17T21:11:36.744Z,94.66
2022-11-17T21:14:08.612Z,94.84
2022-11-17T21:16:40.893Z,94.82
2022-11-17T21:19:11.364Z,94.94
2022-11-17T21:21:41.800Z,94.95
2022-11-17T21:24:12.753Z,94.97
2022-11-17T21:26:43.195Z,94.84
2022-11-17T21:29:14.249Z,94.69
2022-11-17T21:31:44.872Z,94.42
2022-11-17T21:34:17.714Z,94.60
2022-11-17T21:36:48.140Z,94.54
2022-11-17T21:39:19.873Z,94.89
2022-11-17T21:41:50.667Z,94.61
2022-11-17T21:44:21.526Z,94.58
2022-11-17T21:46:52.148Z,94.51
2022-11-17T21:49:22.898Z,94.49
2022-11-17T21:51:53.248Z,94.56
2022-11-17T21:54:24.068Z,94.65
2022-11-17T21:56:54.504Z,94.64
2022-11-17T21:59:25.716Z,94.64
2022-11-17T22:01:56.838Z,94.66
2022-11-17T22:04:27.901Z,94.78
2022-11-17T22:06:58.341Z,94.78
2022-11-17T22:09:29.204Z,94.87
2022-11-17T22:12:00.070Z,94.75
2022-11-17T22:14:30.560Z,94.84
2022-11-17T22:17:01.664Z,94.77
2022-11-17T22:19:33.762Z,94.36
2022-11-17T22:22:04.213Z,94.28
2022-11-17T22:24:35.020Z,94.45
2022-11-17T22:27:05.936Z,94.52
2022-11-17T22:29:37.008Z,94.68
2022-11-17T22:32:07.749Z,95.00
2022-11-17T22:34:38.695Z,94.95
2022-11-17T22:37:09.122Z,94.96
2022-11-17T22:39:39.929Z,94.76
2022-11-17T22:42:10.839Z,94.51
2022-11-17T22:44:41.654Z,94.72
2022-11-17T22:47:12.040Z,94.80
2022-11-17T22:49:42.852Z,94.52
2022-11-17T22:52:15.039Z,94.48
2022-11-17T22:54:45.785Z,94.60
2022-11-17T22:57:16.589Z,94.62
2022-11-17T22:59:47.541Z,94.59
2022-11-17T23:02:18.152Z,94.82
2022-11-17T23:04:48.831Z,94.53
2022-11-17T23:07:19.338Z,94.29
2022-11-17T23:09:50.738Z,94.64
2022-11-17T23:12:21.293Z,94.31
2022-11-17T23:14:52.361Z,94.26
2022-11-17T23:17:23.113Z,94.16
2022-11-17T23:19:53.911Z,94.16
2022-11-17T23:22:24.279Z,94.28
2022-11-17T23:24:55.322Z,94.37
2022-11-17T23:27:25.939Z,94.43
2022-11-17T23:29:56.923Z,94.53
2022-11-17T23:32:27.692Z,94.64
2022-11-17T23:34:58.057Z,94.54
2022-11-17T23:37:28.965Z,94.87
2022-11-17T23:39:59.718Z,95.10
2022-11-17T23:42:32.655Z,95.23
2022-11-17T23:45:03.956Z,95.18
2022-11-17T23:47:34.572Z,95.07
2022-11-17T23:50:05.209Z,95.05
2022-11-17T23:52:35.659Z,94.86
2022-11-17T23:55:07.075Z,95.13
2022-11-17T23:57:37.792Z,94.96
